sensor_id;sensor_type;location;lat;lon;timestamp;P1;durP1;ratioP1;P2;durP2;ratioP2
83560;SDS011;73534;52.584;13.392;2024-03-08T00:00:45;29.63;;;19.35;;
83560;SDS011;73534;52.584;13.392;2024-03-08T00:03:10;28.80;;;18.47;;
83560;SDS011;73534;52.584;13.392;2024-03-08T00:05:36;28.90;;;17.95;;
83560;SDS011;73534;52.584;13.392;2024-03-08T00:08:02;30.00;;;18.48;;
83560;SDS011;73534;52.584;13.392;2024-03-08T00:10:28;28.45;;;19.27;;
83560;SDS011;73534;52.584;13.392;2024-03-08T00:12:54;27.27;;;18.65;;
83560;SDS011;73534;52.584;13.392;2024-03-08T00:15:19;27.48;;;17.60;;
83560;SDS011;73534;52.584;13.392;2024-03-08T00:17:44;34.40;;;18.63;;
83560;SDS011;73534;52.584;13.392;2024-03-08T00:20:10;27.88;;;17.17;;
83560;SDS011;73534;52.584;13.392;2024-03-08T00:22:36;28.75;;;17.30;;
83560;SDS011;73534;52.584;13.392;2024-03-08T00:25:02;26.85;;;18.60;;
83560;SDS011;73534;52.584;13.392;2024-03-08T00:27:27;32.15;;;18.63;;
83560;SDS011;73534;52.584;13.392;2024-03-08T00:29:53;32.97;;;19.80;;
83560;SDS011;73534;52.584;13.392;2024-03-08T00:32:18;34.67;;;20.17;;
83560;SDS011;73534;52.584;13.392;2024-03-08T00:34:44;29.63;;;18.43;;
83560;SDS011;73534;52.584;13.392;2024-03-08T00:37:09;31.10;;;19.53;;
83560;SDS011;73534;52.584;13.392;2024-03-08T00:39:35;28.80;;;18.30;;
83560;SDS011;73534;52.584;13.392;2024-03-08T00:42:00;33.38;;;19.45;;
83560;SDS011;73534;52.584;13.392;2024-03-08T00:44:25;32.03;;;19.57;;
83560;SDS011;73534;52.584;13.392;2024-03-08T00:46:50;28.33;;;18.17;;
83560;SDS011;73534;52.584;13.392;2024-03-08T00:49:16;32.05;;;19.48;;
83560;SDS011;73534;52.584;13.392;2024-03-08T00:51:41;30.70;;;19.42;;
83560;SDS011;73534;52.584;13.392;2024-03-08T00:54:06;32.45;;;19.30;;
83560;SDS011;73534;52.584;13.392;2024-03-08T00:56:32;32.30;;;17.27;;
83560;SDS011;73534;52.584;13.392;2024-03-08T00:58:58;34.92;;;20.95;;
83560;SDS011;73534;52.584;13.392;2024-03-08T01:01:25;31.63;;;19.58;;
83560;SDS011;73534;52.584;13.392;2024-03-08T01:03:50;34.78;;;20.02;;
83560;SDS011;73534;52.584;13.392;2024-03-08T01:06:15;33.55;;;19.70;;
83560;SDS011;73534;52.584;13.392;2024-03-08T01:08:40;30.00;;;17.58;;
83560;SDS011;73534;52.584;13.392;2024-03-08T01:11:07;33.83;;;18.95;;
83560;SDS011;73534;52.584;13.392;2024-03-08T01:13:32;29.75;;;19.48;;
83560;SDS011;73534;52.584;13.392;2024-03-08T01:15:57;32.67;;;20.55;;
83560;SDS011;73534;52.584;13.392;2024-03-08T01:18:22;31.52;;;19.67;;
83560;SDS011;73534;52.584;13.392;2024-03-08T01:20:47;33.80;;;19.87;;
83560;SDS011;73534;52.584;13.392;2024-03-08T01:23:13;32.20;;;20.88;;
83560;SDS011;73534;52.584;13.392;2024-03-08T01:25:38;27.90;;;18.38;;
83560;SDS011;73534;52.584;13.392;2024-03-08T01:28:04;35.33;;;20.73;;
83560;SDS011;73534;52.584;13.392;2024-03-08T01:30:29;34.38;;;20.27;;
83560;SDS011;73534;52.584;13.392;2024-03-08T01:32:54;30.93;;;19.10;;
83560;SDS011;73534;52.584;13.392;2024-03-08T01:35:19;31.37;;;21.17;;
83560;SDS011;73534;52.584;13.392;2024-03-08T01:37:47;29.70;;;19.35;;
83560;SDS011;73534;52.584;13.392;2024-03-08T01:40:14;33.08;;;20.45;;
83560;SDS011;73534;52.584;13.392;2024-03-08T01:42:39;31.13;;;19.98;;
83560;SDS011;73534;52.584;13.392;2024-03-08T01:45:05;31.87;;;20.13;;
83560;SDS011;73534;52.584;13.392;2024-03-08T01:47:31;32.45;;;18.98;;
83560;SDS011;73534;52.584;13.392;2024-03-08T01:49:57;36.67;;;20.48;;
83560;SDS011;73534;52.584;13.392;2024-03-08T01:52:23;30.75;;;21.67;;
83560;SDS011;73534;52.584;13.392;2024-03-08T01:54:50;31.08;;;18.58;;
83560;SDS011;73534;52.584;13.392;2024-03-08T01:57:16;32.97;;;20.52;;
83560;SDS011;73534;52.584;13.392;2024-03-08T01:59:41;36.10;;;21.10;;
83560;SDS011;73534;52.584;13.392;2024-03-08T02:02:06;33.33;;;21.83;;
83560;SDS011;73534;52.584;13.392;2024-03-08T02:04:33;32.20;;;20.60;;
83560;SDS011;73534;52.584;13.392;2024-03-08T02:06:59;31.95;;;20.27;;
83560;SDS011;73534;52.584;13.392;2024-03-08T02:09:24;31.00;;;20.27;;
83560;SDS011;73534;52.584;13.392;2024-03-08T02:11:50;34.03;;;19.60;;
83560;SDS011;73534;52.584;13.392;2024-03-08T02:14:15;33.45;;;20.77;;
83560;SDS011;73534;52.584;13.392;2024-03-08T02:16:40;32.17;;;20.13;;
83560;SDS011;73534;52.584;13.392;2024-03-08T02:19:05;33.80;;;20.13;;
83560;SDS011;73534;52.584;13.392;2024-03-08T02:21:34;32.80;;;20.20;;
83560;SDS011;73534;52.584;13.392;2024-03-08T02:24:00;33.40;;;20.65;;
83560;SDS011;73534;52.584;13.392;2024-03-08T02:26:25;33.55;;;20.95;;
83560;SDS011;73534;52.584;13.392;2024-03-08T02:28:50;32.23;;;20.00;;
83560;SDS011;73534;52.584;13.392;2024-03-08T02:31:15;33.17;;;20.50;;
83560;SDS011;73534;52.584;13.392;2024-03-08T02:33:41;35.00;;;20.45;;
83560;SDS011;73534;52.584;13.392;2024-03-08T02:36:06;35.83;;;20.27;;
83560;SDS011;73534;52.584;13.392;2024-03-08T02:38:32;33.72;;;19.40;;
83560;SDS011;73534;52.584;13.392;2024-03-08T02:40:58;32.25;;;20.90;;
83560;SDS011;73534;52.584;13.392;2024-03-08T02:43:23;32.93;;;19.97;;
83560;SDS011;73534;52.584;13.392;2024-03-08T02:45:49;41.25;;;23.85;;
83560;SDS011;73534;52.584;13.392;2024-03-08T02:48:15;34.35;;;20.83;;
83560;SDS011;73534;52.584;13.392;2024-03-08T02:50:41;33.75;;;19.50;;
83560;SDS011;73534;52.584;13.392;2024-03-08T02:53:07;37.75;;;21.33;;
83560;SDS011;73534;52.584;13.392;2024-03-08T02:55:32;36.38;;;21.75;;
83560;SDS011;73534;52.584;13.392;2024-03-08T02:58:00;36.75;;;21.88;;
83560;SDS011;73534;52.584;13.392;2024-03-08T03:00:26;35.15;;;21.15;;
83560;SDS011;73534;52.584;13.392;2024-03-08T03:02:51;31.33;;;20.38;;
83560;SDS011;73534;52.584;13.392;2024-03-08T03:05:20;38.50;;;21.40;;
83560;SDS011;73534;52.584;13.392;2024-03-08T03:07:45;35.97;;;21.77;;
83560;SDS011;73534;52.584;13.392;2024-03-08T03:10:11;35.40;;;21.77;;
83560;SDS011;73534;52.584;13.392;2024-03-08T03:12:37;32.75;;;20.08;;
83560;SDS011;73534;52.584;13.392;2024-03-08T03:15:03;32.72;;;21.77;;
83560;SDS011;73534;52.584;13.392;2024-03-08T03:17:28;38.40;;;21.35;;
83560;SDS011;73534;52.584;13.392;2024-03-08T03:19:53;35.13;;;20.25;;
83560;SDS011;73534;52.584;13.392;2024-03-08T03:22:19;33.28;;;21.02;;
83560;SDS011;73534;52.584;13.392;2024-03-08T03:24:44;34.10;;;21.52;;
83560;SDS011;73534;52.584;13.392;2024-03-08T03:27:11;38.47;;;22.30;;
83560;SDS011;73534;52.584;13.392;2024-03-08T03:29:37;30.98;;;19.13;;
83560;SDS011;73534;52.584;13.392;2024-03-08T03:32:03;32.97;;;20.00;;
83560;SDS011;73534;52.584;13.392;2024-03-08T03:34:29;34.47;;;21.73;;
83560;SDS011;73534;52.584;13.392;2024-03-08T03:36:54;34.65;;;20.50;;
83560;SDS011;73534;52.584;13.392;2024-03-08T03:39:20;32.60;;;21.05;;
83560;SDS011;73534;52.584;13.392;2024-03-08T03:41:47;33.85;;;18.23;;
83560;SDS011;73534;52.584;13.392;2024-03-08T03:44:14;37.67;;;21.05;;
83560;SDS011;73534;52.584;13.392;2024-03-08T03:46:41;29.60;;;18.40;;
83560;SDS011;73534;52.584;13.392;2024-03-08T03:49:09;30.92;;;19.83;;
83560;SDS011;73534;52.584;13.392;2024-03-08T03:51:34;34.38;;;19.30;;
83560;SDS011;73534;52.584;13.392;2024-03-08T03:53:59;34.45;;;19.95;;
83560;SDS011;73534;52.584;13.392;2024-03-08T03:56:25;29.60;;;20.20;;
83560;SDS011;73534;52.584;13.392;2024-03-08T03:58:50;29.95;;;19.13;;
83560;SDS011;73534;52.584;13.392;2024-03-08T04:01:16;38.08;;;21.00;;
83560;SDS011;73534;52.584;13.392;2024-03-08T04:03:41;35.88;;;20.00;;
83560;SDS011;73534;52.584;13.392;2024-03-08T04:06:08;30.90;;;21.20;;
83560;SDS011;73534;52.584;13.392;2024-03-08T04:08:33;38.15;;;20.35;;
83560;SDS011;73534;52.584;13.392;2024-03-08T04:10:59;34.15;;;19.73;;
83560;SDS011;73534;52.584;13.392;2024-03-08T04:13:24;35.25;;;20.55;;
83560;SDS011;73534;52.584;13.392;2024-03-08T04:15:49;37.15;;;21.63;;
83560;SDS011;73534;52.584;13.392;2024-03-08T04:18:14;36.08;;;21.10;;
83560;SDS011;73534;52.584;13.392;2024-03-08T04:20:40;31.07;;;18.90;;
83560;SDS011;73534;52.584;13.392;2024-03-08T04:23:05;32.40;;;20.83;;
83560;SDS011;73534;52.584;13.392;2024-03-08T04:25:30;40.80;;;23.20;;
83560;SDS011;73534;52.584;13.392;2024-03-08T04:27:55;39.17;;;21.35;;
83560;SDS011;73534;52.584;13.392;2024-03-08T04:30:21;34.63;;;21.88;;
83560;SDS011;73534;52.584;13.392;2024-03-08T04:32:46;34.42;;;20.38;;
83560;SDS011;73534;52.584;13.392;2024-03-08T04:35:12;40.25;;;21.58;;
83560;SDS011;73534;52.584;13.392;2024-03-08T04:37:37;36.03;;;20.63;;
83560;SDS011;73534;52.584;13.392;2024-03-08T04:40:02;35.15;;;20.65;;
83560;SDS011;73534;52.584;13.392;2024-03-08T04:42:28;31.38;;;20.33;;
83560;SDS011;73534;52.584;13.392;2024-03-08T04:44:54;37.17;;;21.65;;
83560;SDS011;73534;52.584;13.392;2024-03-08T04:47:19;39.20;;;21.80;;
83560;SDS011;73534;52.584;13.392;2024-03-08T04:49:45;39.88;;;22.70;;
83560;SDS011;73534;52.584;13.392;2024-03-08T04:52:10;37.67;;;22.67;;
83560;SDS011;73534;52.584;13.392;2024-03-08T04:54:35;38.90;;;21.33;;
83560;SDS011;73534;52.584;13.392;2024-03-08T04:57:01;36.60;;;21.53;;
83560;SDS011;73534;52.584;13.392;2024-03-08T04:59:26;37.63;;;21.77;;
83560;SDS011;73534;52.584;13.392;2024-03-08T05:01:52;34.80;;;20.08;;
83560;SDS011;73534;52.584;13.392;2024-03-08T05:04:17;37.33;;;21.23;;
83560;SDS011;73534;52.584;13.392;2024-03-08T05:06:42;36.20;;;21.50;;
83560;SDS011;73534;52.584;13.392;2024-03-08T05:09:07;35.55;;;21.13;;
83560;SDS011;73534;52.584;13.392;2024-03-08T05:11:42;35.88;;;21.20;;
83560;SDS011;73534;52.584;13.392;2024-03-08T05:14:08;34.45;;;20.75;;
83560;SDS011;73534;52.584;13.392;2024-03-08T05:16:33;42.30;;;21.70;;
83560;SDS011;73534;52.584;13.392;2024-03-08T05:18:59;35.10;;;21.38;;
83560;SDS011;73534;52.584;13.392;2024-03-08T05:21:24;33.50;;;22.02;;
83560;SDS011;73534;52.584;13.392;2024-03-08T05:23:50;40.90;;;23.02;;
83560;SDS011;73534;52.584;13.392;2024-03-08T05:26:15;39.63;;;23.20;;
83560;SDS011;73534;52.584;13.392;2024-03-08T05:28:40;41.03;;;23.65;;
83560;SDS011;73534;52.584;13.392;2024-03-08T05:31:05;38.35;;;21.17;;
83560;SDS011;73534;52.584;13.392;2024-03-08T05:33:31;34.35;;;21.80;;
83560;SDS011;73534;52.584;13.392;2024-03-08T05:35:57;33.93;;;21.97;;
83560;SDS011;73534;52.584;13.392;2024-03-08T05:38:22;35.75;;;20.65;;
83560;SDS011;73534;52.584;13.392;2024-03-08T05:40:47;40.97;;;23.13;;
83560;SDS011;73534;52.584;13.392;2024-03-08T05:43:12;37.37;;;22.63;;
83560;SDS011;73534;52.584;13.392;2024-03-08T05:45:37;39.20;;;22.23;;
83560;SDS011;73534;52.584;13.392;2024-03-08T05:48:02;34.35;;;20.58;;
83560;SDS011;73534;52.584;13.392;2024-03-08T05:50:28;36.85;;;21.98;;
83560;SDS011;73534;52.584;13.392;2024-03-08T05:52:53;36.00;;;22.33;;
83560;SDS011;73534;52.584;13.392;2024-03-08T05:55:18;40.00;;;23.20;;
83560;SDS011;73534;52.584;13.392;2024-03-08T05:57:43;40.53;;;24.83;;
83560;SDS011;73534;52.584;13.392;2024-03-08T06:00:09;38.30;;;23.57;;
83560;SDS011;73534;52.584;13.392;2024-03-08T06:02:36;37.63;;;22.98;;
83560;SDS011;73534;52.584;13.392;2024-03-08T06:05:05;34.42;;;21.27;;
83560;SDS011;73534;52.584;13.392;2024-03-08T06:07:31;37.38;;;23.33;;
83560;SDS011;73534;52.584;13.392;2024-03-08T06:09:57;39.03;;;23.00;;
83560;SDS011;73534;52.584;13.392;2024-03-08T06:12:23;36.50;;;22.93;;
83560;SDS011;73534;52.584;13.392;2024-03-08T06:14:53;35.10;;;21.98;;
83560;SDS011;73534;52.584;13.392;2024-03-08T06:17:19;37.63;;;22.30;;
83560;SDS011;73534;52.584;13.392;2024-03-08T06:19:44;43.70;;;24.33;;
83560;SDS011;73534;52.584;13.392;2024-03-08T06:22:09;38.83;;;23.37;;
83560;SDS011;73534;52.584;13.392;2024-03-08T06:24:35;40.63;;;22.85;;
83560;SDS011;73534;52.584;13.392;2024-03-08T06:27:02;42.40;;;25.73;;
83560;SDS011;73534;52.584;13.392;2024-03-08T06:29:27;41.45;;;23.70;;
83560;SDS011;73534;52.584;13.392;2024-03-08T06:31:53;39.45;;;22.98;;
83560;SDS011;73534;52.584;13.392;2024-03-08T06:34:18;33.03;;;21.77;;
83560;SDS011;73534;52.584;13.392;2024-03-08T06:36:43;37.87;;;22.87;;
83560;SDS011;73534;52.584;13.392;2024-03-08T06:39:09;35.08;;;20.92;;
83560;SDS011;73534;52.584;13.392;2024-03-08T06:41:35;35.47;;;23.00;;
83560;SDS011;73534;52.584;13.392;2024-03-08T06:44:13;38.58;;;23.45;;
83560;SDS011;73534;52.584;13.392;2024-03-08T06:46:51;34.78;;;21.25;;
83560;SDS011;73534;52.584;13.392;2024-03-08T06:49:27;33.08;;;20.88;;
83560;SDS011;73534;52.584;13.392;2024-03-08T06:51:59;35.55;;;20.38;;
83560;SDS011;73534;52.584;13.392;2024-03-08T06:54:24;34.75;;;20.65;;
83560;SDS011;73534;52.584;13.392;2024-03-08T06:56:50;34.78;;;21.30;;
83560;SDS011;73534;52.584;13.392;2024-03-08T06:59:15;34.47;;;20.25;;
83560;SDS011;73534;52.584;13.392;2024-03-08T07:01:43;33.45;;;20.70;;
83560;SDS011;73534;52.584;13.392;2024-03-08T07:04:08;33.10;;;22.35;;
83560;SDS011;73534;52.584;13.392;2024-03-08T07:06:33;35.17;;;22.05;;
83560;SDS011;73534;52.584;13.392;2024-03-08T07:08:58;32.87;;;21.90;;
83560;SDS011;73534;52.584;13.392;2024-03-08T07:11:24;34.75;;;22.98;;
83560;SDS011;73534;52.584;13.392;2024-03-08T07:13:49;37.30;;;22.85;;
83560;SDS011;73534;52.584;13.392;2024-03-08T07:16:14;38.90;;;23.83;;
83560;SDS011;73534;52.584;13.392;2024-03-08T07:18:40;31.13;;;21.50;;
83560;SDS011;73534;52.584;13.392;2024-03-08T07:21:08;31.45;;;22.58;;
83560;SDS011;73534;52.584;13.392;2024-03-08T07:23:33;37.40;;;21.38;;
83560;SDS011;73534;52.584;13.392;2024-03-08T07:26:17;33.40;;;21.52;;
83560;SDS011;73534;52.584;13.392;2024-03-08T07:28:43;35.05;;;22.00;;
83560;SDS011;73534;52.584;13.392;2024-03-08T07:31:08;35.73;;;22.53;;
83560;SDS011;73534;52.584;13.392;2024-03-08T07:33:39;33.42;;;22.80;;
83560;SDS011;73534;52.584;13.392;2024-03-08T07:36:04;31.33;;;22.05;;
83560;SDS011;73534;52.584;13.392;2024-03-08T07:38:30;34.37;;;22.00;;
83560;SDS011;73534;52.584;13.392;2024-03-08T07:40:55;35.03;;;23.27;;
83560;SDS011;73534;52.584;13.392;2024-03-08T07:43:22;31.27;;;21.42;;
83560;SDS011;73534;52.584;13.392;2024-03-08T07:45:47;33.05;;;22.58;;
83560;SDS011;73534;52.584;13.392;2024-03-08T07:48:12;33.90;;;24.20;;
83560;SDS011;73534;52.584;13.392;2024-03-08T07:50:38;32.27;;;20.90;;
83560;SDS011;73534;52.584;13.392;2024-03-08T07:53:06;32.60;;;22.55;;
83560;SDS011;73534;52.584;13.392;2024-03-08T07:55:32;33.15;;;21.50;;
83560;SDS011;73534;52.584;13.392;2024-03-08T07:57:57;31.92;;;21.35;;
83560;SDS011;73534;52.584;13.392;2024-03-08T08:00:23;35.50;;;22.83;;
83560;SDS011;73534;52.584;13.392;2024-03-08T08:02:49;34.03;;;21.08;;
83560;SDS011;73534;52.584;13.392;2024-03-08T08:05:14;32.85;;;20.65;;
83560;SDS011;73534;52.584;13.392;2024-03-08T08:07:40;33.10;;;21.23;;
83560;SDS011;73534;52.584;13.392;2024-03-08T08:10:08;29.98;;;21.25;;
83560;SDS011;73534;52.584;13.392;2024-03-08T08:12:40;33.10;;;21.08;;
83560;SDS011;73534;52.584;13.392;2024-03-08T08:15:06;29.10;;;21.10;;
83560;SDS011;73534;52.584;13.392;2024-03-08T08:17:32;30.30;;;20.17;;
83560;SDS011;73534;52.584;13.392;2024-03-08T08:19:57;30.47;;;20.23;;
83560;SDS011;73534;52.584;13.392;2024-03-08T08:22:22;30.25;;;20.48;;
83560;SDS011;73534;52.584;13.392;2024-03-08T08:24:47;28.80;;;19.77;;
83560;SDS011;73534;52.584;13.392;2024-03-08T08:27:13;33.50;;;20.08;;
83560;SDS011;73534;52.584;13.392;2024-03-08T08:29:39;31.05;;;21.65;;
83560;SDS011;73534;52.584;13.392;2024-03-08T08:32:05;31.52;;;20.02;;
83560;SDS011;73534;52.584;13.392;2024-03-08T08:34:30;27.98;;;19.20;;
83560;SDS011;73534;52.584;13.392;2024-03-08T08:36:56;26.60;;;18.45;;
83560;SDS011;73534;52.584;13.392;2024-03-08T08:39:21;27.80;;;19.90;;
83560;SDS011;73534;52.584;13.392;2024-03-08T08:41:47;26.65;;;18.45;;
83560;SDS011;73534;52.584;13.392;2024-03-08T08:44:12;27.73;;;18.43;;
83560;SDS011;73534;52.584;13.392;2024-03-08T08:46:38;30.15;;;19.92;;
83560;SDS011;73534;52.584;13.392;2024-03-08T08:49:04;29.73;;;19.20;;
83560;SDS011;73534;52.584;13.392;2024-03-08T08:51:30;25.75;;;18.65;;
83560;SDS011;73534;52.584;13.392;2024-03-08T08:53:57;32.17;;;20.85;;
83560;SDS011;73534;52.584;13.392;2024-03-08T08:56:23;26.42;;;19.23;;
83560;SDS011;73534;52.584;13.392;2024-03-08T08:58:50;27.08;;;19.02;;
83560;SDS011;73534;52.584;13.392;2024-03-08T09:01:16;23.85;;;18.25;;
83560;SDS011;73534;52.584;13.392;2024-03-08T09:03:43;26.27;;;19.73;;
83560;SDS011;73534;52.584;13.392;2024-03-08T09:06:16;23.90;;;18.75;;
83560;SDS011;73534;52.584;13.392;2024-03-08T09:08:43;28.05;;;19.92;;
83560;SDS011;73534;52.584;13.392;2024-03-08T09:11:11;25.48;;;16.65;;
83560;SDS011;73534;52.584;13.392;2024-03-08T09:13:36;25.60;;;17.45;;
83560;SDS011;73534;52.584;13.392;2024-03-08T09:16:01;24.92;;;17.45;;
83560;SDS011;73534;52.584;13.392;2024-03-08T09:18:27;26.67;;;18.75;;
83560;SDS011;73534;52.584;13.392;2024-03-08T09:20:52;28.92;;;18.38;;
83560;SDS011;73534;52.584;13.392;2024-03-08T09:23:21;28.17;;;18.63;;
83560;SDS011;73534;52.584;13.392;2024-03-08T09:25:46;26.73;;;18.35;;
83560;SDS011;73534;52.584;13.392;2024-03-08T09:28:12;26.50;;;17.67;;
83560;SDS011;73534;52.584;13.392;2024-03-08T09:30:37;23.33;;;16.80;;
83560;SDS011;73534;52.584;13.392;2024-03-08T09:33:03;28.60;;;19.63;;
83560;SDS011;73534;52.584;13.392;2024-03-08T09:35:30;26.17;;;18.95;;
83560;SDS011;73534;52.584;13.392;2024-03-08T09:37:56;28.25;;;18.50;;
83560;SDS011;73534;52.584;13.392;2024-03-08T09:40:21;27.27;;;18.95;;
83560;SDS011;73534;52.584;13.392;2024-03-08T09:42:49;29.92;;;19.05;;
83560;SDS011;73534;52.584;13.392;2024-03-08T09:45:14;30.13;;;19.20;;
83560;SDS011;73534;52.584;13.392;2024-03-08T09:47:42;33.72;;;19.83;;
83560;SDS011;73534;52.584;13.392;2024-03-08T09:50:07;28.48;;;18.48;;
83560;SDS011;73534;52.584;13.392;2024-03-08T09:52:37;27.48;;;18.90;;
83560;SDS011;73534;52.584;13.392;2024-03-08T09:55:05;27.83;;;19.83;;
83560;SDS011;73534;52.584;13.392;2024-03-08T09:57:31;29.55;;;18.42;;
83560;SDS011;73534;52.584;13.392;2024-03-08T09:59:57;34.50;;;23.20;;
83560;SDS011;73534;52.584;13.392;2024-03-08T10:02:36;25.65;;;18.75;;
83560;SDS011;73534;52.584;13.392;2024-03-08T10:05:02;26.05;;;18.50;;
83560;SDS011;73534;52.584;13.392;2024-03-08T10:07:28;26.08;;;17.40;;
83560;SDS011;73534;52.584;13.392;2024-03-08T10:09:53;24.88;;;17.15;;
83560;SDS011;73534;52.584;13.392;2024-03-08T10:12:19;27.80;;;17.70;;
83560;SDS011;73534;52.584;13.392;2024-03-08T10:14:44;29.25;;;17.75;;
83560;SDS011;73534;52.584;13.392;2024-03-08T10:17:09;23.07;;;15.83;;
83560;SDS011;73534;52.584;13.392;2024-03-08T10:19:34;27.10;;;17.80;;
83560;SDS011;73534;52.584;13.392;2024-03-08T10:21:59;24.23;;;18.20;;
83560;SDS011;73534;52.584;13.392;2024-03-08T10:24:25;26.13;;;17.60;;
83560;SDS011;73534;52.584;13.392;2024-03-08T10:26:53;25.80;;;17.15;;
83560;SDS011;73534;52.584;13.392;2024-03-08T10:29:19;25.95;;;16.83;;
83560;SDS011;73534;52.584;13.392;2024-03-08T10:31:48;27.20;;;16.50;;
83560;SDS011;73534;52.584;13.392;2024-03-08T10:34:17;23.40;;;16.65;;
83560;SDS011;73534;52.584;13.392;2024-03-08T10:36:42;24.98;;;16.33;;
83560;SDS011;73534;52.584;13.392;2024-03-08T10:41:44;25.00;;;16.65;;
83560;SDS011;73534;52.584;13.392;2024-03-08T10:44:17;24.48;;;14.98;;
83560;SDS011;73534;52.584;13.392;2024-03-08T10:49:17;25.50;;;15.80;;
83560;SDS011;73534;52.584;13.392;2024-03-08T10:51:44;19.95;;;14.30;;
83560;SDS011;73534;52.584;13.392;2024-03-08T10:54:10;25.67;;;16.10;;
83560;SDS011;73534;52.584;13.392;2024-03-08T10:56:36;21.73;;;14.57;;
83560;SDS011;73534;52.584;13.392;2024-03-08T10:59:02;23.58;;;15.13;;
83560;SDS011;73534;52.584;13.392;2024-03-08T11:01:29;21.30;;;15.68;;
83560;SDS011;73534;52.584;13.392;2024-03-08T11:03:55;26.05;;;15.85;;
83560;SDS011;73534;52.584;13.392;2024-03-08T11:06:31;24.05;;;16.30;;
83560;SDS011;73534;52.584;13.392;2024-03-08T11:09:11;21.35;;;15.63;;
83560;SDS011;73534;52.584;13.392;2024-03-08T11:11:52;20.52;;;13.45;;
83560;SDS011;73534;52.584;13.392;2024-03-08T11:17:03;23.08;;;14.50;;
83560;SDS011;73534;52.584;13.392;2024-03-08T11:19:31;21.20;;;14.57;;
83560;SDS011;73534;52.584;13.392;2024-03-08T11:21:58;22.75;;;17.58;;
83560;SDS011;73534;52.584;13.392;2024-03-08T11:24:23;24.42;;;13.43;;
83560;SDS011;73534;52.584;13.392;2024-03-08T11:26:48;26.55;;;15.65;;
83560;SDS011;73534;52.584;13.392;2024-03-08T11:32:16;24.40;;;14.73;;
83560;SDS011;73534;52.584;13.392;2024-03-08T11:34:44;20.80;;;13.57;;
83560;SDS011;73534;52.584;13.392;2024-03-08T11:37:11;19.92;;;13.60;;
83560;SDS011;73534;52.584;13.392;2024-03-08T11:42:02;21.58;;;12.45;;
83560;SDS011;73534;52.584;13.392;2024-03-08T11:44:27;21.50;;;13.43;;
83560;SDS011;73534;52.584;13.392;2024-03-08T11:46:53;22.00;;;13.73;;
83560;SDS011;73534;52.584;13.392;2024-03-08T11:49:18;22.90;;;15.48;;
83560;SDS011;73534;52.584;13.392;2024-03-08T11:51:44;22.67;;;14.88;;
83560;SDS011;73534;52.584;13.392;2024-03-08T11:54:15;21.95;;;14.65;;
83560;SDS011;73534;52.584;13.392;2024-03-08T11:56:42;20.80;;;14.98;;
83560;SDS011;73534;52.584;13.392;2024-03-08T11:59:11;23.40;;;14.80;;
83560;SDS011;73534;52.584;13.392;2024-03-08T12:01:39;23.40;;;14.45;;
83560;SDS011;73534;52.584;13.392;2024-03-08T12:04:04;20.63;;;13.30;;
83560;SDS011;73534;52.584;13.392;2024-03-08T12:06:37;18.95;;;13.85;;
83560;SDS011;73534;52.584;13.392;2024-03-08T12:09:09;20.75;;;13.18;;
83560;SDS011;73534;52.584;13.392;2024-03-08T12:11:35;23.08;;;15.05;;
83560;SDS011;73534;52.584;13.392;2024-03-08T12:14:00;20.48;;;13.93;;
83560;SDS011;73534;52.584;13.392;2024-03-08T12:16:26;20.27;;;12.93;;
83560;SDS011;73534;52.584;13.392;2024-03-08T12:18:52;20.77;;;14.57;;
83560;SDS011;73534;52.584;13.392;2024-03-08T12:21:20;21.83;;;13.55;;
83560;SDS011;73534;52.584;13.392;2024-03-08T12:23:50;23.67;;;14.50;;
83560;SDS011;73534;52.584;13.392;2024-03-08T12:26:28;22.80;;;15.23;;
83560;SDS011;73534;52.584;13.392;2024-03-08T12:28:56;23.95;;;14.85;;
83560;SDS011;73534;52.584;13.392;2024-03-08T12:31:41;21.08;;;14.10;;
83560;SDS011;73534;52.584;13.392;2024-03-08T12:34:07;23.08;;;15.38;;
83560;SDS011;73534;52.584;13.392;2024-03-08T12:36:35;17.10;;;13.07;;
83560;SDS011;73534;52.584;13.392;2024-03-08T12:39:01;19.77;;;12.98;;
83560;SDS011;73534;52.584;13.392;2024-03-08T12:41:29;19.63;;;13.20;;
83560;SDS011;73534;52.584;13.392;2024-03-08T12:43:54;22.38;;;12.38;;
83560;SDS011;73534;52.584;13.392;2024-03-08T12:46:21;19.63;;;13.82;;
83560;SDS011;73534;52.584;13.392;2024-03-08T12:48:46;17.75;;;13.35;;
83560;SDS011;73534;52.584;13.392;2024-03-08T12:51:15;20.17;;;13.20;;
83560;SDS011;73534;52.584;13.392;2024-03-08T12:53:41;21.20;;;14.75;;
83560;SDS011;73534;52.584;13.392;2024-03-08T12:56:09;20.65;;;15.20;;
83560;SDS011;73534;52.584;13.392;2024-03-08T12:58:34;23.45;;;15.23;;
83560;SDS011;73534;52.584;13.392;2024-03-08T13:03:26;20.75;;;13.38;;
83560;SDS011;73534;52.584;13.392;2024-03-08T13:05:53;22.52;;;15.38;;
83560;SDS011;73534;52.584;13.392;2024-03-08T13:08:18;19.30;;;13.18;;
83560;SDS011;73534;52.584;13.392;2024-03-08T13:10:43;20.60;;;13.73;;
83560;SDS011;73534;52.584;13.392;2024-03-08T13:13:12;21.30;;;14.60;;
83560;SDS011;73534;52.584;13.392;2024-03-08T13:15:42;23.20;;;15.18;;
83560;SDS011;73534;52.584;13.392;2024-03-08T13:18:08;20.55;;;14.65;;
83560;SDS011;73534;52.584;13.392;2024-03-08T13:21:42;22.75;;;15.50;;
83560;SDS011;73534;52.584;13.392;2024-03-08T13:23:49;22.58;;;15.43;;
83560;SDS011;73534;52.584;13.392;2024-03-08T13:26:15;23.87;;;15.40;;
83560;SDS011;73534;52.584;13.392;2024-03-08T13:28:41;21.50;;;14.45;;
83560;SDS011;73534;52.584;13.392;2024-03-08T13:31:06;21.77;;;13.88;;
83560;SDS011;73534;52.584;13.392;2024-03-08T13:33:35;21.60;;;14.52;;
83560;SDS011;73534;52.584;13.392;2024-03-08T13:36:01;21.83;;;14.82;;
83560;SDS011;73534;52.584;13.392;2024-03-08T13:38:26;22.10;;;13.50;;
83560;SDS011;73534;52.584;13.392;2024-03-08T13:40:51;20.08;;;13.80;;
83560;SDS011;73534;52.584;13.392;2024-03-08T13:43:16;21.85;;;14.93;;
83560;SDS011;73534;52.584;13.392;2024-03-08T13:45:42;24.17;;;16.15;;
83560;SDS011;73534;52.584;13.392;2024-03-08T13:48:08;19.77;;;13.27;;
83560;SDS011;73534;52.584;13.392;2024-03-08T13:50:37;21.52;;;14.65;;
83560;SDS011;73534;52.584;13.392;2024-03-08T13:53:02;20.73;;;14.67;;
83560;SDS011;73534;52.584;13.392;2024-03-08T13:55:28;25.10;;;16.48;;
83560;SDS011;73534;52.584;13.392;2024-03-08T13:57:53;23.83;;;16.55;;
83560;SDS011;73534;52.584;13.392;2024-03-08T14:00:19;24.10;;;17.03;;
83560;SDS011;73534;52.584;13.392;2024-03-08T14:02:48;26.42;;;17.23;;
83560;SDS011;73534;52.584;13.392;2024-03-08T14:05:13;24.27;;;16.27;;
83560;SDS011;73534;52.584;13.392;2024-03-08T14:07:40;23.27;;;15.02;;
83560;SDS011;73534;52.584;13.392;2024-03-08T14:10:05;25.97;;;16.60;;
83560;SDS011;73534;52.584;13.392;2024-03-08T14:12:32;23.60;;;16.10;;
83560;SDS011;73534;52.584;13.392;2024-03-08T14:14:57;22.42;;;16.13;;
83560;SDS011;73534;52.584;13.392;2024-03-08T14:17:27;23.60;;;15.23;;
83560;SDS011;73534;52.584;13.392;2024-03-08T14:19:56;23.83;;;16.05;;